Time;durP1;ratioP1;P1;durP2;ratioP2;P2;SDS_P1;SDS_P2;PMS_P1;PMS_P2;Temp;Humidity;BMP_temperature;BMP_pressure;BME280_temperature;BME280_humidity;BME280_pressure;Samples;Min_cycle;Max_cycle;Signal;HPM_P1;HPM_P2
2021/06/25 00:00:57;;;;;;;3.00;2.65;;;15.10;79.20;;;;;;2081137;28;20035;-83
2021/06/25 00:01:57;;;;;;;2.80;2.10;;;15.00;79.20;;;;;;2081849;28;20033;-82
2021/06/25 00:02:58;;;;;;;3.42;2.22;;;15.00;79.20;;;;;;2081744;28;20022;-83
2021/06/25 00:03:59;;;;;;;3.28;2.40;;;15.00;79.30;;;;;;2081470;28;20025;-82
2021/06/25 00:04:59;;;;;;;3.00;2.45;;;14.90;79.40;;;;;;2073254;28;20097;-82
2021/06/25 00:06:00;;;;;;;3.83;2.42;;;14.90;79.50;;;;;;2064550;28;20401;-82
2021/06/25 00:07:01;;;;;;;3.22;2.40;;;14.90;79.50;;;;;;2057448;28;20038;-83
2021/06/25 00:08:01;;;;;;;3.00;2.40;;;14.90;79.60;;;;;;2065559;28;20127;-82
2021/06/25 00:09:04;;;;;;;3.10;2.42;;;14.90;79.60;;;;;;2072959;28;20179;-83
2021/06/25 00:10:07;;;;;;;2.55;2.33;;;14.80;79.50;;;;;;2081708;28;20033;-83
2021/06/25 00:11:08;;;;;;;2.95;2.53;;;14.80;79.70;;;;;;2073634;28;20033;-83
2021/06/25 00:12:09;;;;;;;3.40;2.63;;;14.80;79.80;;;;;;2075890;28;20033;-83
2021/06/25 00:13:10;;;;;;;3.80;2.65;;;14.70;79.80;;;;;;2081701;28;20064;-83
2021/06/25 00:14:10;;;;;;;3.70;2.85;;;14.70;79.90;;;;;;2073501;28;20511;-83
2021/06/25 00:15:12;;;;;;;3.90;2.35;;;14.70;79.90;;;;;;2065467;28;20031;-83
2021/06/25 00:16:13;;;;;;;6.47;3.08;;;14.70;79.90;;;;;;2081666;28;20040;-83
2021/06/25 00:17:13;;;;;;;3.38;2.58;;;14.70;79.90;;;;;;2081340;28;20137;-83
2021/06/25 00:18:14;;;;;;;3.97;2.58;;;14.60;79.90;;;;;;2070350;28;20030;-83
2021/06/25 00:19:15;;;;;;;3.85;3.00;;;14.60;79.90;;;;;;2070837;28;20061;-83
2021/06/25 00:20:16;;;;;;;2.78;2.38;;;14.60;80.00;;;;;;2073102;28;20516;-83
2021/06/25 00:21:17;;;;;;;3.83;2.80;;;14.60;80.00;;;;;;2072890;28;20695;-83
2021/06/25 00:22:18;;;;;;;3.70;2.88;;;14.50;80.00;;;;;;2072381;28;20068;-82
2021/06/25 00:23:18;;;;;;;3.78;2.72;;;14.50;80.10;;;;;;2072864;28;20029;-82
2021/06/25 00:24:19;;;;;;;4.03;2.65;;;14.50;80.20;;;;;;2057126;28;20031;-83
2021/06/25 00:25:20;;;;;;;3.55;2.58;;;14.50;80.20;;;;;;2057375;28;20027;-83
2021/06/25 00:26:20;;;;;;;2.80;2.50;;;14.50;80.30;;;;;;2065290;28;20030;-83
2021/06/25 00:27:22;;;;;;;3.60;2.60;;;14.40;80.30;;;;;;2088147;28;20029;-83
2021/06/25 00:28:23;;;;;;;4.50;2.72;;;14.40;80.30;;;;;;2079698;28;20072;-83
2021/06/25 00:29:24;;;;;;;4.05;2.75;;;14.40;80.40;;;;;;2056850;28;20019;-83
2021/06/25 00:30:24;;;;;;;4.18;2.75;;;14.40;80.50;;;;;;2065594;28;20045;-83
2021/06/25 00:31:25;;;;;;;3.92;2.92;;;14.30;80.50;;;;;;2076882;28;20032;-83
2021/06/25 00:32:26;;;;;;;4.60;3.00;;;14.30;80.50;;;;;;2073207;28;20166;-83
2021/06/25 00:33:26;;;;;;;4.18;2.70;;;14.30;80.60;;;;;;2065124;28;20026;-83
2021/06/25 00:34:27;;;;;;;4.25;2.85;;;14.30;80.60;;;;;;2050909;28;20441;-83
2021/06/25 00:35:28;;;;;;;4.13;2.97;;;14.30;80.80;;;;;;2056244;28;20038;-83
2021/06/25 00:36:28;;;;;;;3.47;2.80;;;14.30;80.80;;;;;;2065151;28;20049;-83
2021/06/25 00:37:29;;;;;;;3.10;2.28;;;14.30;81.40;;;;;;2064883;28;20493;-82
2021/06/25 00:38:30;;;;;;;3.38;2.90;;;14.30;80.80;;;;;;2057055;28;20450;-82
2021/06/25 00:39:30;;;;;;;4.05;3.03;;;14.20;80.70;;;;;;2072301;28;20124;-83
2021/06/25 00:40:32;;;;;;;4.30;2.90;;;14.30;80.80;;;;;;2081502;28;20120;-83
2021/06/25 00:41:33;;;;;;;3.53;2.50;;;14.20;80.60;;;;;;2073172;28;20081;-83
2021/06/25 00:42:34;;;;;;;3.80;2.80;;;14.20;80.80;;;;;;2065233;28;20129;-83
2021/06/25 00:43:38;;;;;;;4.30;3.30;;;14.20;80.70;;;;;;2073391;28;20170;-83
2021/06/25 00:44:39;;;;;;;3.47;2.85;;;14.20;80.80;;;;;;2071395;28;20018;-83
2021/06/25 00:45:40;;;;;;;3.72;3.05;;;14.20;80.80;;;;;;2073305;28;20033;-83
2021/06/25 00:46:42;;;;;;;4.82;3.08;;;14.20;80.80;;;;;;2081579;28;20120;-83
2021/06/25 00:47:44;;;;;;;3.50;2.92;;;14.20;80.70;;;;;;2081580;28;20032;-82
2021/06/25 00:48:45;;;;;;;4.80;2.90;;;14.10;80.60;;;;;;2072721;28;20026;-83
2021/06/25 00:49:46;;;;;;;4.55;2.92;;;14.10;80.60;;;;;;2058749;28;20039;-82
2021/06/25 00:50:47;;;;;;;4.55;3.20;;;14.10;80.70;;;;;;2078411;28;20121;-83
2021/06/25 00:51:47;;;;;;;3.58;3.00;;;14.00;80.80;;;;;;2086793;28;20068;-82
2021/06/25 00:52:52;;;;;;;4.25;3.17;;;14.00;80.90;;;;;;2085974;28;20021;-83
2021/06/25 00:53:53;;;;;;;5.00;3.30;;;14.00;81.00;;;;;;2078072;28;20085;-82
2021/06/25 00:54:54;;;;;;;4.38;3.17;;;14.00;81.00;;;;;;2078751;28;20049;-82
2021/06/25 00:55:54;;;;;;;4.20;3.00;;;14.00;81.10;;;;;;2085292;28;20045;-83
2021/06/25 00:56:55;;;;;;;5.20;3.35;;;14.00;81.10;;;;;;2090983;28;20548;-83
2021/06/25 00:57:56;;;;;;;4.72;3.33;;;13.90;81.10;;;;;;2076805;28;20527;-82
2021/06/25 00:58:57;;;;;;;3.90;2.97;;;14.00;81.10;;;;;;2079341;28;20018;-82
2021/06/25 00:59:58;;;;;;;4.38;3.47;;;14.00;81.10;;;;;;2081678;28;20026;-83
2021/06/25 01:00:58;;;;;;;3.70;3.20;;;13.90;81.00;;;;;;2090228;28;20088;-82
2021/06/25 01:01:59;;;;;;;6.30;3.55;;;14.00;81.10;;;;;;2082674;28;20049;-81
2021/06/25 01:03:00;;;;;;;3.85;3.15;;;13.90;81.10;;;;;;2076378;28;20026;-83
2021/06/25 01:04:01;;;;;;;3.80;3.30;;;13.90;81.00;;;;;;2073279;28;20097;-82
2021/06/25 01:05:03;;;;;;;4.10;3.13;;;13.90;81.00;;;;;;2082900;28;20026;-83
2021/06/25 01:06:04;;;;;;;4.55;3.22;;;13.90;81.10;;;;;;2079714;28;20032;-83
2021/06/25 01:07:05;;;;;;;4.72;3.30;;;13.90;81.10;;;;;;2068918;28;20164;-82
2021/06/25 01:08:07;;;;;;;4.05;3.17;;;13.80;81.20;;;;;;2065359;28;20030;-83
2021/06/25 01:09:09;;;;;;;4.10;3.10;;;13.80;81.20;;;;;;2059656;28;20035;-82
2021/06/25 01:10:10;;;;;;;4.63;3.55;;;13.80;81.30;;;;;;2058756;28;20070;-82
2021/06/25 01:11:12;;;;;;;4.07;3.22;;;13.80;81.30;;;;;;2068962;28;20476;-82
2021/06/25 01:12:13;;;;;;;4.35;3.40;;;13.80;81.30;;;;;;2072963;28;20021;-82
2021/06/25 01:13:14;;;;;;;4.45;3.50;;;13.80;81.30;;;;;;2080808;28;20559;-82
2021/06/25 01:14:18;;;;;;;4.15;3.15;;;13.80;81.30;;;;;;2079234;28;20029;-83
2021/06/25 01:15:18;;;;;;;4.07;3.17;;;13.80;81.30;;;;;;2073422;28;20025;-83
2021/06/25 01:16:19;;;;;;;4.75;3.50;;;13.70;81.20;;;;;;2064744;28;20065;-83
2021/06/25 01:17:31;;;;;;;3.67;3.20;;;13.70;81.20;;;;;;2065206;28;20077;-82
2021/06/25 01:18:33;;;;;;;3.95;3.15;;;13.70;81.30;;;;;;2067722;28;20085;-83
2021/06/25 01:19:34;;;;;;;4.25;3.17;;;13.70;81.30;;;;;;2072934;28;20507;-83
2021/06/25 01:20:35;;;;;;;4.35;2.97;;;13.70;81.40;;;;;;2081275;28;20165;-83
2021/06/25 01:21:36;;;;;;;4.03;3.38;;;13.60;81.40;;;;;;2075639;28;20527;-82
2021/06/25 01:22:41;;;;;;;5.65;3.80;;;13.60;81.40;;;;;;2083129;28;20014;-84
2021/06/25 01:23:42;;;;;;;5.00;3.75;;;13.60;81.60;;;;;;2090914;28;20084;-83
2021/06/25 01:24:43;;;;;;;4.53;3.55;;;13.50;81.60;;;;;;2074743;28;20027;-82
2021/06/25 01:25:44;;;;;;;4.30;3.30;;;13.50;81.70;;;;;;2081818;28;20164;-82
2021/06/25 01:26:44;;;;;;;4.95;3.30;;;13.50;81.70;;;;;;2089984;28;20034;-82
2021/06/25 01:27:50;;;;;;;4.68;3.60;;;13.50;81.70;;;;;;2080222;28;20538;-82
2021/06/25 01:28:52;;;;;;;5.45;3.50;;;13.50;81.70;;;;;;2080586;28;20022;-82
2021/06/25 01:29:56;;;;;;;4.53;3.40;;;13.50;81.70;;;;;;2072265;28;20112;-83
2021/06/25 01:30:57;;;;;;;4.10;3.50;;;13.50;81.80;;;;;;2057900;28;20019;-83
2021/06/25 01:31:58;;;;;;;4.45;3.47;;;13.40;81.80;;;;;;2065154;28;20021;-83
2021/06/25 01:33:00;;;;;;;4.53;3.53;;;13.40;81.80;;;;;;2065561;28;20026;-83
2021/06/25 01:34:04;;;;;;;5.18;3.72;;;13.40;81.90;;;;;;2065796;28;20026;-83
2021/06/25 01:35:06;;;;;;;3.97;3.33;;;13.40;81.90;;;;;;2057224;28;20085;-83
2021/06/25 01:36:08;;;;;;;5.05;3.90;;;13.40;81.90;;;;;;2064191;28;20032;-83
2021/06/25 01:37:08;;;;;;;4.43;3.70;;;13.40;81.90;;;;;;2072790;28;20451;-83
2021/06/25 01:38:12;;;;;;;4.60;3.75;;;13.40;81.70;;;;;;2072497;28;20041;-83
2021/06/25 01:39:12;;;;;;;4.35;3.67;;;13.40;81.80;;;;;;2070834;28;20026;-83
2021/06/25 01:40:15;;;;;;;4.95;3.63;;;13.40;81.70;;;;;;2064039;28;20046;-83
2021/06/25 01:41:16;;;;;;;5.38;3.80;;;13.40;81.70;;;;;;2073167;28;20026;-84
2021/06/25 01:42:17;;;;;;;4.88;4.15;;;13.40;81.70;;;;;;2063471;28;20528;-83
2021/06/25 01:43:18;;;;;;;4.72;3.90;;;13.40;81.70;;;;;;2064893;28;20545;-83
2021/06/25 01:44:19;;;;;;;5.38;4.15;;;13.30;81.70;;;;;;2064744;28;20041;-83
2021/06/25 01:45:25;;;;;;;5.47;4.03;;;13.30;81.70;;;;;;2048873;28;20405;-83
2021/06/25 01:46:27;;;;;;;4.47;3.60;;;13.30;81.80;;;;;;2062751;28;20030;-83
2021/06/25 01:47:27;;;;;;;4.97;3.80;;;13.30;81.80;;;;;;2073288;28;20045;-83
2021/06/25 01:48:28;;;;;;;4.30;3.58;;;13.30;81.90;;;;;;2056549;28;20081;-83
2021/06/25 01:49:29;;;;;;;4.63;3.53;;;13.20;81.80;;;;;;2055979;28;20031;-83
2021/06/25 01:50:36;;;;;;;5.32;4.15;;;13.30;81.90;;;;;;2078538;28;20052;-83
2021/06/25 01:51:36;;;;;;;4.82;4.05;;;13.30;81.90;;;;;;2078361;28;20021;-82
2021/06/25 01:52:42;;;;;;;6.07;4.00;;;13.20;81.90;;;;;;2072451;28;20072;-83
2021/06/25 01:53:43;;;;;;;5.47;4.18;;;13.30;81.90;;;;;;2073248;28;20539;-83
2021/06/25 01:54:47;;;;;;;5.60;4.10;;;13.20;81.80;;;;;;2067269;28;20113;-82
2021/06/25 01:55:50;;;;;;;5.22;4.38;;;13.20;81.80;;;;;;2059010;28;20023;-82
2021/06/25 01:56:51;;;;;;;4.75;3.88;;;13.20;81.80;;;;;;2064196;28;20036;-82
2021/06/25 01:57:53;;;;;;;4.68;3.85;;;13.20;82.50;;;;;;2072816;28;20045;-83
2021/06/25 01:58:53;;;;;;;5.13;3.85;;;13.20;81.90;;;;;;2064451;28;20100;-83
2021/06/25 01:59:54;;;;;;;5.57;3.95;;;13.10;81.90;;;;;;2064949;28;20038;-83
2021/06/25 02:01:06;;;;;;;4.28;3.80;;;13.20;82.00;;;;;;2064429;28;20037;-83
2021/06/25 02:02:07;;;;;;;4.63;3.83;;;13.10;82.00;;;;;;2073277;28;20041;-83
2021/06/25 02:03:08;;;;;;;4.65;3.88;;;13.10;82.60;;;;;;2072463;28;20021;-83
2021/06/25 02:04:09;;;;;;;4.93;3.85;;;13.00;82.00;;;;;;2065058;28;20576;-83
2021/06/25 02:05:14;;;;;;;5.60;3.97;;;13.00;82.00;;;;;;2056749;28;20030;-83
2021/06/25 02:06:15;;;;;;;4.78;4.00;;;13.00;82.10;;;;;;2057936;28;20046;-83
2021/06/25 02:07:16;;;;;;;5.50;4.30;;;13.00;82.20;;;;;;2071844;28;20029;-83
2021/06/25 02:08:16;;;;;;;5.07;3.88;;;13.00;82.20;;;;;;2072480;28;20022;-83
2021/06/25 02:09:17;;;;;;;5.40;4.10;;;13.00;82.20;;;;;;2064757;28;20026;-83
2021/06/25 02:10:17;;;;;;;5.53;4.00;;;13.00;82.20;;;;;;2072804;28;20048;-83
2021/06/25 02:11:22;;;;;;;5.60;4.25;;;13.00;82.20;;;;;;2072952;28;20026;-83
2021/06/25 02:12:24;;;;;;;5.10;4.32;;;13.00;82.20;;;;;;2068168;28;20039;-83
2021/06/25 02:13:25;;;;;;;5.47;4.18;;;12.90;82.10;;;;;;2074584;28;20042;-83
2021/06/25 02:14:26;;;;;;;5.35;4.13;;;13.00;82.10;;;;;;2066422;28;20034;-83
2021/06/25 02:15:26;;;;;;;5.97;5.05;;;12.90;82.00;;;;;;2065761;28;20080;-83
2021/06/25 02:16:27;;;;;;;5.82;4.45;;;12.90;82.00;;;;;;2074669;28;20108;-83
2021/06/25 02:17:28;;;;;;;5.20;4.55;;;12.90;82.00;;;;;;2082266;28;20024;-83
2021/06/25 02:18:28;;;;;;;5.65;4.47;;;12.90;81.90;;;;;;2073577;28;20109;-83
2021/06/25 02:19:29;;;;;;;5.70;4.60;;;12.90;81.90;;;;;;2066310;28;20027;-83
2021/06/25 02:20:30;;;;;;;6.30;4.45;;;12.90;81.90;;;;;;2069832;28;20085;-83
2021/06/25 02:21:30;;;;;;;5.10;4.32;;;12.90;81.80;;;;;;2066249;28;20489;-83
2021/06/25 02:22:31;;;;;;;5.18;4.45;;;13.00;81.80;;;;;;2074357;28;20060;-83
2021/06/25 02:23:32;;;;;;;5.80;4.70;;;12.90;81.70;;;;;;2066182;28;20473;-83
2021/06/25 02:24:33;;;;;;;4.70;4.07;;;12.90;81.70;;;;;;2068062;28;20109;-83
2021/06/25 02:25:34;;;;;;;5.07;4.35;;;12.90;81.70;;;;;;2066269;28;20030;-82
2021/06/25 02:26:34;;;;;;;6.07;4.80;;;12.90;81.70;;;;;;2069411;28;20078;-82
2021/06/25 02:27:35;;;;;;;4.85;3.92;;;12.90;81.70;;;;;;2072048;28;20026;-82
2021/06/25 02:28:36;;;;;;;5.75;4.40;;;12.90;81.80;;;;;;2067171;28;20137;-82
2021/06/25 02:29:37;;;;;;;5.40;4.45;;;12.80;81.70;;;;;;2065307;28;20030;-82
2021/06/25 02:30:37;;;;;;;5.45;4.57;;;12.80;81.80;;;;;;2073846;28;20084;-83
2021/06/25 02:31:38;;;;;;;5.38;4.30;;;12.80;81.90;;;;;;2074240;28;20085;-82
2021/06/25 02:32:38;;;;;;;6.93;4.57;;;12.70;81.80;;;;;;2066314;28;20030;-83
2021/06/25 02:33:39;;;;;;;6.35;4.65;;;12.70;81.80;;;;;;2071977;28;20189;-82
2021/06/25 02:34:40;;;;;;;5.80;4.78;;;12.70;81.90;;;;;;2074208;28;20026;-83
2021/06/25 02:35:41;;;;;;;6.07;4.75;;;12.70;81.80;;;;;;2059028;28;20035;-82
2021/06/25 02:36:41;;;;;;;5.30;4.57;;;12.70;82.50;;;;;;2066297;28;20034;-82
2021/06/25 02:37:43;;;;;;;6.30;4.90;;;12.60;81.90;;;;;;2065516;28;20184;-83
2021/06/25 02:38:43;;;;;;;5.82;4.90;;;12.60;81.90;;;;;;2057206;28;20551;-82
2021/06/25 02:39:44;;;;;;;6.13;5.30;;;12.60;81.90;;;;;;2066060;28;20050;-83
2021/06/25 02:40:44;;;;;;;6.25;4.97;;;12.60;82.00;;;;;;2073926;28;20113;-83
2021/06/25 02:41:46;;;;;;;5.97;4.68;;;12.60;82.00;;;;;;2073727;28;20041;-83
2021/06/25 02:42:47;;;;;;;6.45;4.97;;;12.60;82.00;;;;;;2074322;28;20485;-83
2021/06/25 02:43:48;;;;;;;6.47;5.28;;;12.50;81.90;;;;;;2065873;28;20047;-83
2021/06/25 02:44:49;;;;;;;6.03;5.30;;;12.50;81.90;;;;;;2074481;28;20112;-83
2021/06/25 02:45:50;;;;;;;7.78;5.05;;;12.60;81.90;;;;;;2077689;28;20507;-83
2021/06/25 02:46:51;;;;;;;5.60;4.78;;;12.50;81.80;;;;;;2074492;28;20058;-82
2021/06/25 02:47:51;;;;;;;6.03;4.90;;;12.50;81.70;;;;;;2063434;28;20082;-82
2021/06/25 02:48:52;;;;;;;6.53;5.20;;;12.50;81.70;;;;;;2062986;28;20511;-82
2021/06/25 02:49:52;;;;;;;6.40;5.13;;;12.50;81.70;;;;;;2074103;28;20038;-83
2021/06/25 02:50:53;;;;;;;6.80;5.70;;;12.50;81.70;;;;;;2065674;28;20023;-82
2021/06/25 02:51:54;;;;;;;6.38;4.93;;;12.50;81.60;;;;;;2066080;28;20045;-82
2021/06/25 02:52:55;;;;;;;7.22;5.40;;;12.50;81.70;;;;;;2074282;28;20034;-82
2021/06/25 02:53:55;;;;;;;6.15;5.05;;;12.50;81.60;;;;;;2073176;28;20065;-82
2021/06/25 02:54:56;;;;;;;6.30;5.20;;;12.50;81.60;;;;;;2065843;28;20407;-83
2021/06/25 02:55:57;;;;;;;6.80;5.55;;;12.50;81.60;;;;;;2057909;28;20027;-83
2021/06/25 02:56:57;;;;;;;7.88;5.63;;;12.40;81.50;;;;;;2064408;28;20058;-82
2021/06/25 02:57:58;;;;;;;7.32;5.60;;;12.40;81.60;;;;;;2073535;28;20037;-82
2021/06/25 02:58:58;;;;;;;7.85;5.70;;;12.40;81.60;;;;;;2080256;28;20079;-82
2021/06/25 02:59:59;;;;;;;7.47;5.40;;;12.40;81.60;;;;;;2076659;28;20057;-83
2021/06/25 03:01:00;;;;;;;6.90;5.38;;;12.30;81.60;;;;;;2082294;28;20025;-83
2021/06/25 03:02:00;;;;;;;6.82;5.60;;;12.30;81.60;;;;;;2065928;28;20030;-83
2021/06/25 03:03:01;;;;;;;6.47;5.40;;;12.30;81.70;;;;;;2074115;28;20049;-83
2021/06/25 03:04:02;;;;;;;6.05;5.30;;;12.30;81.80;;;;;;2073800;28;20037;-83
2021/06/25 03:05:04;;;;;;;6.63;5.75;;;12.30;81.80;;;;;;2073889;28;20419;-83
2021/06/25 03:06:04;;;;;;;6.82;5.55;;;12.20;81.80;;;;;;2065671;28;20061;-83
2021/06/25 03:07:05;;;;;;;7.40;5.72;;;12.30;81.80;;;;;;2066061;28;20559;-82
2021/06/25 03:08:06;;;;;;;7.03;5.82;;;12.20;81.70;;;;;;2065202;28;20503;-83
2021/06/25 03:09:07;;;;;;;8.30;5.97;;;12.20;81.70;;;;;;2070776;28;20396;-83
2021/06/25 03:10:09;;;;;;;7.75;5.72;;;12.30;81.70;;;;;;2065442;28;20516;-82
2021/06/25 03:11:09;;;;;;;6.63;5.88;;;12.20;81.60;;;;;;2074029;28;20033;-83
2021/06/25 03:12:10;;;;;;;7.95;6.13;;;12.20;81.60;;;;;;2073974;28;20399;-82
2021/06/25 03:13:11;;;;;;;7.32;5.95;;;12.20;81.70;;;;;;2071988;28;20026;-82
2021/06/25 03:14:12;;;;;;;7.28;6.20;;;12.10;81.60;;;;;;2065785;28;20065;-83
2021/06/25 03:15:12;;;;;;;7.43;6.03;;;12.20;81.60;;;;;;2071579;28;20025;-83
2021/06/25 03:16:13;;;;;;;7.95;5.97;;;12.10;81.60;;;;;;2065785;28;20057;-83
2021/06/25 03:17:14;;;;;;;7.43;6.53;;;12.10;81.60;;;;;;2055111;28;20031;-82
2021/06/25 03:18:16;;;;;;;7.80;6.13;;;12.10;81.70;;;;;;2056544;28;20555;-82
2021/06/25 03:19:17;;;;;;;7.40;6.10;;;12.10;81.70;;;;;;2058601;28;20042;-82
2021/06/25 03:20:17;;;;;;;8.02;6.25;;;12.10;81.60;;;;;;2073748;28;20037;-82
2021/06/25 03:21:18;;;;;;;7.43;6.22;;;12.10;81.70;;;;;;2082171;28;20044;-83
2021/06/25 03:22:19;;;;;;;8.18;6.35;;;12.10;81.70;;;;;;2073997;28;20524;-83
2021/06/25 03:23:19;;;;;;;8.95;6.75;;;12.10;81.70;;;;;;2081770;28;20266;-82
2021/06/25 03:24:20;;;;;;;7.07;6.10;;;12.10;81.70;;;;;;2082129;28;20036;-83
2021/06/25 03:25:21;;;;;;;8.27;6.50;;;12.10;81.70;;;;;;2082063;28;20545;-83
2021/06/25 03:26:22;;;;;;;7.45;5.88;;;12.10;81.70;;;;;;2080453;28;20052;-82
2021/06/25 03:27:22;;;;;;;6.90;5.97;;;12.10;81.70;;;;;;2069319;28;20117;-82
2021/06/25 03:28:23;;;;;;;7.63;6.07;;;12.10;81.70;;;;;;2071076;28;20412;-82
2021/06/25 03:29:25;;;;;;;6.70;5.65;;;12.10;81.70;;;;;;2065589;28;20488;-82
2021/06/25 03:30:26;;;;;;;7.63;6.03;;;12.10;81.70;;;;;;2065954;28;20084;-82
2021/06/25 03:31:26;;;;;;;7.65;6.18;;;12.10;81.70;;;;;;2060770;28;20022;-83
2021/06/25 03:32:27;;;;;;;6.57;5.82;;;12.00;81.70;;;;;;2057771;28;20525;-82
2021/06/25 03:33:28;;;;;;;7.78;5.90;;;12.10;81.80;;;;;;2060343;28;20038;-82
2021/06/25 03:34:28;;;;;;;7.07;5.72;;;12.10;81.80;;;;;;2073381;28;20103;-82
2021/06/25 03:35:30;;;;;;;7.53;6.30;;;12.00;81.70;;;;;;2073889;28;20404;-82
2021/06/25 03:36:31;;;;;;;7.30;6.05;;;12.00;81.80;;;;;;2073158;28;20423;-82
2021/06/25 03:37:31;;;;;;;7.75;5.80;;;12.00;81.80;;;;;;2082059;28;20124;-82
2021/06/25 03:38:32;;;;;;;7.43;5.80;;;12.10;82.00;;;;;;2073208;28;20611;-82
2021/06/25 03:39:33;;;;;;;7.03;5.95;;;12.00;81.90;;;;;;2081695;28;20517;-82
2021/06/25 03:40:36;;;;;;;6.65;5.65;;;12.00;81.90;;;;;;2073691;28;20033;-83
2021/06/25 03:41:36;;;;;;;7.75;5.85;;;12.10;81.90;;;;;;2074173;28;20054;-83
2021/06/25 03:42:38;;;;;;;7.07;6.13;;;12.10;81.80;;;;;;2081808;28;20495;-82
2021/06/25 03:43:39;;;;;;;6.88;5.63;;;12.10;81.80;;;;;;2073811;28;20714;-82
2021/06/25 03:44:40;;;;;;;7.20;5.95;;;12.10;82.30;;;;;;2073377;28;20416;-82
2021/06/25 03:45:40;;;;;;;7.43;6.20;;;12.20;81.60;;;;;;2065037;28;20034;-82
2021/06/25 03:46:41;;;;;;;6.95;5.63;;;12.20;81.50;;;;;;2049619;28;20032;-83
2021/06/25 03:47:42;;;;;;;7.03;5.88;;;12.20;81.50;;;;;;2055791;28;20031;-82
2021/06/25 03:48:44;;;;;;;7.10;5.82;;;12.30;81.50;;;;;;2057960;28;20097;-82
2021/06/25 03:49:44;;;;;;;7.63;6.18;;;12.30;81.40;;;;;;2081429;28;20045;-83
2021/06/25 03:50:45;;;;;;;7.07;6.03;;;12.30;81.40;;;;;;2073608;28;20022;-82
2021/06/25 03:51:46;;;;;;;7.32;6.07;;;12.30;81.30;;;;;;2073095;28;20494;-82
2021/06/25 03:52:46;;;;;;;7.63;6.00;;;12.30;81.30;;;;;;2082033;28;20171;-82
2021/06/25 03:53:48;;;;;;;7.60;5.88;;;12.30;81.20;;;;;;2088587;28;20085;-82
2021/06/25 03:54:49;;;;;;;8.02;6.03;;;12.40;81.30;;;;;;2081864;28;20029;-82
2021/06/25 03:57:08;;;;;;;6.85;5.50;;;12.40;81.90;;;;;;2080784;28;20040;-82
2021/06/25 03:58:09;;;;;;;7.03;5.97;;;12.50;81.20;;;;;;2073770;28;20562;-82
2021/06/25 03:59:10;;;;;;;7.50;6.20;;;12.50;81.70;;;;;;2077871;28;20029;-82
2021/06/25 04:00:16;;;;;;;7.30;6.20;;;12.50;81.10;;;;;;2073027;28;20054;-82
2021/06/25 04:01:19;;;;;;;6.70;5.72;;;12.50;81.10;;;;;;2082592;28;20025;-82
2021/06/25 04:02:20;;;;;;;6.80;5.53;;;12.60;81.10;;;;;;2081665;28;20030;-83
2021/06/25 04:03:20;;;;;;;7.18;5.90;;;12.60;81.10;;;;;;2071277;28;20037;-82
2021/06/25 04:04:22;;;;;;;7.40;6.28;;;12.60;81.00;;;;;;2065264;28;20461;-83
2021/06/25 04:05:22;;;;;;;6.82;5.85;;;12.60;81.00;;;;;;2065414;28;20046;-83
2021/06/25 04:06:23;;;;;;;7.75;6.15;;;12.70;81.00;;;;;;2073528;28;20124;-83
2021/06/25 04:07:26;;;;;;;6.75;5.53;;;12.70;81.00;;;;;;2081810;28;20185;-83
2021/06/25 04:08:29;;;;;;;6.53;5.55;;;12.80;81.10;;;;;;2081597;28;20021;-83
2021/06/25 04:09:30;;;;;;;6.88;5.80;;;12.90;81.10;;;;;;2067093;28;20030;-83
2021/06/25 04:10:31;;;;;;;7.78;6.38;;;12.90;81.00;;;;;;2078993;28;20029;-82
2021/06/25 04:11:33;;;;;;;6.20;5.20;;;13.00;81.00;;;;;;2081869;28;20112;-83
2021/06/25 04:12:34;;;;;;;7.07;5.47;;;13.10;80.90;;;;;;2072038;28;20030;-83
2021/06/25 04:13:35;;;;;;;7.63;6.15;;;13.20;81.50;;;;;;2073437;28;20056;-83
2021/06/25 04:14:36;;;;;;;7.25;6.13;;;13.20;80.80;;;;;;2065553;28;20121;-83
2021/06/25 04:15:36;;;;;;;7.85;6.35;;;13.30;80.70;;;;;;2065561;28;20049;-83
2021/06/25 04:16:37;;;;;;;8.10;6.53;;;13.30;80.60;;;;;;2073688;28;20045;-83
2021/06/25 04:17:38;;;;;;;8.02;6.55;;;13.40;80.50;;;;;;2064868;28;20568;-83
2021/06/25 04:18:38;;;;;;;8.10;6.70;;;13.50;80.40;;;;;;2064523;28;20084;-83
2021/06/25 04:19:39;;;;;;;9.80;7.20;;;13.50;80.20;;;;;;2078786;28;20124;-83
2021/06/25 04:20:40;;;;;;;10.13;7.05;;;13.60;80.10;;;;;;2081281;28;20508;-83
2021/06/25 04:21:41;;;;;;;9.00;7.18;;;13.70;80.00;;;;;;2073597;28;20480;-83
2021/06/25 04:22:41;;;;;;;8.85;7.20;;;13.80;79.90;;;;;;2065297;28;20030;-82
2021/06/25 04:23:42;;;;;;;8.70;7.25;;;13.80;79.80;;;;;;2076430;28;20112;-83
2021/06/25 04:24:43;;;;;;;8.05;7.20;;;13.90;79.60;;;;;;2072802;28;20125;-83
2021/06/25 04:25:44;;;;;;;8.57;7.05;;;14.00;79.50;;;;;;2056497;28;20611;-82
2021/06/25 04:26:45;;;;;;;8.43;7.22;;;14.00;79.40;;;;;;2056451;28;20039;-82
2021/06/25 04:27:45;;;;;;;8.48;7.10;;;14.10;79.40;;;;;;2057205;28;20031;-83
2021/06/25 04:28:46;;;;;;;9.57;7.47;;;14.10;79.30;;;;;;2065401;28;20477;-82
2021/06/25 04:29:47;;;;;;;8.52;7.20;;;14.10;79.30;;;;;;2065152;28;20538;-83
2021/06/25 04:30:48;;;;;;;9.07;7.63;;;14.20;79.30;;;;;;2073227;28;20026;-83
2021/06/25 04:31:53;;;;;;;8.52;6.78;;;14.20;79.20;;;;;;2073514;28;20033;-83
2021/06/25 04:32:57;;;;;;;8.48;7.30;;;14.20;79.20;;;;;;2065291;28;20041;-82
2021/06/25 04:33:58;;;;;;;8.05;7.15;;;14.30;79.30;;;;;;2065818;28;20022;-82
2021/06/25 04:34:58;;;;;;;8.95;6.97;;;14.30;79.30;;;;;;2064945;28;20133;-82
2021/06/25 04:35:59;;;;;;;8.82;7.03;;;14.30;79.80;;;;;;2056612;28;20456;-82
2021/06/25 04:37:00;;;;;;;8.57;7.43;;;14.40;79.20;;;;;;2056931;28;20150;-83
2021/06/25 04:38:01;;;;;;;8.73;6.88;;;14.40;79.20;;;;;;2057289;28;20472;-83
2021/06/25 04:39:04;;;;;;;8.07;7.20;;;14.40;79.10;;;;;;2073664;28;20038;-83
2021/06/25 04:40:06;;;;;;;8.40;7.25;;;14.50;79.20;;;;;;2072711;28;20395;-82
2021/06/25 04:41:07;;;;;;;8.25;7.15;;;14.50;79.20;;;;;;2073374;28;20025;-82
2021/06/25 04:42:11;;;;;;;7.88;6.72;;;14.50;79.10;;;;;;2081557;28;20018;-82
2021/06/25 04:43:14;;;;;;;7.72;6.80;;;14.60;79.10;;;;;;2079101;28;20112;-82
2021/06/25 04:44:17;;;;;;;9.38;7.68;;;14.60;79.00;;;;;;2079401;28;20021;-82
2021/06/25 04:45:17;;;;;;;8.20;7.30;;;14.70;79.00;;;;;;2072956;28;20030;-82
2021/06/25 04:46:18;;;;;;;8.55;7.28;;;14.70;79.00;;;;;;2073240;28;20109;-81
2021/06/25 04:47:19;;;;;;;9.20;7.95;;;14.70;78.90;;;;;;2080039;28;20075;-82
2021/06/25 04:48:19;;;;;;;9.88;8.07;;;14.80;78.90;;;;;;2085953;28;20033;-81
2021/06/25 04:49:20;;;;;;;10.45;8.35;;;14.80;78.80;;;;;;2088858;28;20095;-81
2021/06/25 04:50:21;;;;;;;10.43;8.50;;;14.80;78.80;;;;;;2064076;28;20104;-82
2021/06/25 04:51:22;;;;;;;9.82;8.27;;;14.90;78.80;;;;;;2063408;28;20023;-82
2021/06/25 04:52:22;;;;;;;11.00;8.18;;;14.90;78.70;;;;;;2067039;28;20026;-82
2021/06/25 04:53:23;;;;;;;9.85;8.25;;;14.90;78.60;;;;;;2064296;28;20050;-82
2021/06/25 04:54:24;;;;;;;10.07;8.40;;;15.00;78.70;;;;;;2067596;28;20049;-82
2021/06/25 04:55:25;;;;;;;9.73;8.32;;;15.00;78.60;;;;;;2065180;28;20108;-82
2021/06/25 04:56:25;;;;;;;10.93;8.98;;;15.00;78.50;;;;;;2057060;28;20500;-82
2021/06/25 04:57:26;;;;;;;9.40;8.40;;;15.00;78.50;;;;;;2078039;28;20034;-82
2021/06/25 04:58:28;;;;;;;10.80;8.68;;;15.10;78.50;;;;;;2081225;28;20068;-82
2021/06/25 04:59:28;;;;;;;10.50;8.32;;;15.10;78.50;;;;;;2064919;28;20031;-82
2021/06/25 05:00:29;;;;;;;9.98;8.43;;;15.10;78.40;;;;;;2064261;28;20401;-82
2021/06/25 05:01:30;;;;;;;10.52;8.30;;;15.20;78.40;;;;;;2064864;28;20366;-82
2021/06/25 05:02:30;;;;;;;9.43;8.38;;;15.20;78.40;;;;;;2064895;28;20038;-82
2021/06/25 05:03:33;;;;;;;9.68;8.50;;;15.20;78.40;;;;;;2064751;28;20501;-82
2021/06/25 05:04:33;;;;;;;10.13;8.35;;;15.20;78.30;;;;;;2063447;28;20038;-82
2021/06/25 05:05:36;;;;;;;9.68;8.45;;;15.30;78.30;;;;;;2072807;28;20029;-82
2021/06/25 05:06:36;;;;;;;10.98;8.70;;;15.30;78.20;;;;;;2071286;28;20026;-82
2021/06/25 05:07:37;;;;;;;9.48;8.40;;;15.30;78.10;;;;;;2064905;28;20030;-82
2021/06/25 05:08:39;;;;;;;10.35;8.48;;;15.30;78.10;;;;;;2056360;28;20042;-82
2021/06/25 05:09:39;;;;;;;10.10;8.25;;;15.30;78.00;;;;;;2057077;28;20082;-82
2021/06/25 05:10:40;;;;;;;10.05;8.10;;;15.30;78.70;;;;;;2066822;28;20046;-81
2021/06/25 05:11:41;;;;;;;10.18;8.32;;;15.30;78.00;;;;;;2073479;28;20046;-82
2021/06/25 05:12:42;;;;;;;10.30;8.73;;;15.30;78.00;;;;;;2067141;28;20039;-82
2021/06/25 05:13:43;;;;;;;10.00;8.35;;;15.30;78.10;;;;;;2073798;28;20049;-82
2021/06/25 05:14:43;;;;;;;10.18;8.50;;;15.30;78.00;;;;;;2076451;28;20022;-81
2021/06/25 05:15:44;;;;;;;10.55;9.02;;;15.20;78.00;;;;;;2065477;28;20037;-81
2021/06/25 05:16:44;;;;;;;11.00;9.07;;;15.20;78.10;;;;;;2065438;28;20534;-82
2021/06/25 05:17:46;;;;;;;10.73;9.07;;;15.20;78.10;;;;;;2073877;28;20041;-81
2021/06/25 05:18:46;;;;;;;10.55;8.82;;;15.20;78.10;;;;;;2068392;28;20029;-82
2021/06/25 05:19:47;;;;;;;12.80;9.05;;;15.20;78.00;;;;;;2066641;28;20037;-82